Onde está Évora Airport en Portugal?

Évora Airport está situado na região Evora em Portugal!

Buscar o nome de uma cidade:

Evoron, Evormakok, Evora Hotel, Evorédouleux, Evormitok

Aqui você vai encontrar a localização de Évora Airport em um mapa.
Para ver como ele atualmente parece, abaixo estão algumas fotos da região, com webcams online.
Você também pode encontrar a distância para as principais cidades da região e de cidades do resto do Portugal.

Todos os lugares do mundo chamado .

new

Onde está Évora Airport no mapa?


Webcams perto Évora Airport

Comporta: Distrito de - Praia do Carvalhal°.


Comporta: Distrito de - Praia do Carvalhal° - Dia
Actual
Comporta: Distrito de - Praia do Carvalhal° - Actual

Vasco Carão > South: Garrocheira, Benavente - Airport.


Vasco Carão > South: Garrocheira, Benavente - Airport - Dia
Actual
Vasco Carão > South: Garrocheira, Benavente - Airport - Actual

Benavente > North-East: AIrport, METAR: BENAV 180005Z 36004KT 17/14 Q1015.


Benavente > North-East: AIrport, METAR: BENAV 180005Z 36004KT 17/14 Q1015 - Dia
Actual
Benavente > North-East: AIrport, METAR: BENAV 180005Z 36004KT 17/14 Q1015 - Actual

Webcams provided by webcams.travel

Distâncias

Onde está Évora Airport em relação a outros lugares?

Top 10 cidades em Evora e distância de Évora Airport.

Cidade#Populaçãokmmilhas
Évora14585132
Montemor-o-Novo2128543119
Vendas Novas3112485132
Estremoz493494327
Reguengos de Monsaraz572173421
Redondo658453220
Vila Viçosa754845031
Borba845864830
Adaval9-2616
Agua d' Alte10-3421

Top 10 cidades em Portugal e distância de Évora Airport.

Cidade # Populaçãokmmilhas
Lisbon151779810968
Porto2249630298185
Amadora317885612175
Braga4121393338210
Setúbal51171098955
Coimbra6106580192119
Queluz710339812175
Funchal8980411046650
Vila Nova de Gaia970810296184
Loures106623011672